sensor_id;sensor_type;location;lat;lon;timestamp;pressure;altitude;pressure_sealevel;temperature;humidity
59531;BME280;45349;48.692;8.186;2022-12-29T00:01:36;98191.94;;;12.30;58.25
59531;BME280;45349;48.692;8.186;2022-12-29T00:04:03;98191.06;;;12.37;57.63
59531;BME280;45349;48.692;8.186;2022-12-29T00:06:31;98211.34;;;12.35;57.56
59531;BME280;45349;48.692;8.186;2022-12-29T00:08:58;98197.81;;;12.32;57.54
59531;BME280;45349;48.692;8.186;2022-12-29T00:11:26;98188.28;;;12.39;56.16
59531;BME280;45349;48.692;8.186;2022-12-29T00:13:53;98206.25;;;12.42;56.53
59531;BME280;45349;48.692;8.186;2022-12-29T00:16:37;98186.47;;;12.39;56.68
59531;BME280;45349;48.692;8.186;2022-12-29T00:19:04;98186.81;;;12.36;56.50
59531;BME280;45349;48.692;8.186;2022-12-29T00:21:32;98191.75;;;12.31;57.20
59531;BME280;45349;48.692;8.186;2022-12-29T00:24:19;98181.47;;;12.30;57.11
59531;BME280;45349;48.692;8.186;2022-12-29T00:27:18;98199.13;;;12.28;57.56
59531;BME280;45349;48.692;8.186;2022-12-29T00:30:02;98189.81;;;12.25;57.16
59531;BME280;45349;48.692;8.186;2022-12-29T00:32:46;98163.78;;;12.32;56.73
59531;BME280;45349;48.692;8.186;2022-12-29T00:35:37;98194.84;;;12.35;57.30
59531;BME280;45349;48.692;8.186;2022-12-29T00:38:07;98191.75;;;12.31;57.39
59531;BME280;45349;48.692;8.186;2022-12-29T00:40:52;98185.84;;;12.29;57.20
59531;BME280;45349;48.692;8.186;2022-12-29T00:43:36;98192.72;;;12.30;57.56
59531;BME280;45349;48.692;8.186;2022-12-29T00:46:20;98204.53;;;12.26;57.69
59531;BME280;45349;48.692;8.186;2022-12-29T00:48:47;98203.38;;;12.29;57.96
59531;BME280;45349;48.692;8.186;2022-12-29T00:51:34;98206.50;;;12.24;58.58
59531;BME280;45349;48.692;8.186;2022-12-29T00:54:02;98192.00;;;12.13;59.15
59531;BME280;45349;48.692;8.186;2022-12-29T00:56:29;98202.84;;;12.02;59.53
59531;BME280;45349;48.692;8.186;2022-12-29T00:58:59;98205.78;;;11.99;59.73
59531;BME280;45349;48.692;8.186;2022-12-29T01:01:27;98207.75;;;11.96;59.64
59531;BME280;45349;48.692;8.186;2022-12-29T01:03:55;98212.66;;;11.91;60.07
59531;BME280;45349;48.692;8.186;2022-12-29T01:06:22;98207.75;;;11.96;59.66
59531;BME280;45349;48.692;8.186;2022-12-29T01:08:50;98221.16;;;11.93;59.59
59531;BME280;45349;48.692;8.186;2022-12-29T01:11:38;98212.66;;;11.91;60.11
59531;BME280;45349;48.692;8.186;2022-12-29T01:14:05;98229.69;;;11.87;60.28
59531;BME280;45349;48.692;8.186;2022-12-29T01:16:33;98213.66;;;11.90;60.05
59531;BME280;45349;48.692;8.186;2022-12-29T01:19:01;98216.59;;;11.87;60.11
59531;BME280;45349;48.692;8.186;2022-12-29T01:21:28;98218.25;;;11.80;60.37
59531;BME280;45349;48.692;8.186;2022-12-29T01:23:55;98215.53;;;11.73;61.27
59531;BME280;45349;48.692;8.186;2022-12-29T01:26:21;98225.16;;;11.73;61.06
59531;BME280;45349;48.692;8.186;2022-12-29T01:28:52;98203.31;;;11.65;61.67
59531;BME280;45349;48.692;8.186;2022-12-29T01:31:18;98191.50;;;11.70;61.15
59531;BME280;45349;48.692;8.186;2022-12-29T01:33:45;98201.16;;;11.69;60.85
59531;BME280;45349;48.692;8.186;2022-12-29T01:36:13;98201.16;;;11.69;60.71
59531;BME280;45349;48.692;8.186;2022-12-29T01:38:41;98188.53;;;11.73;61.12
59531;BME280;45349;48.692;8.186;2022-12-29T01:41:10;98199.50;;;11.76;60.83
59531;BME280;45349;48.692;8.186;2022-12-29T01:43:42;98198.84;;;11.74;60.48
59531;BME280;45349;48.692;8.186;2022-12-29T01:46:18;98200.16;;;11.70;61.39
59531;BME280;45349;48.692;8.186;2022-12-29T01:48:46;98192.00;;;11.73;60.85
59531;BME280;45349;48.692;8.186;2022-12-29T01:51:15;98208.47;;;11.74;60.06
59531;BME280;45349;48.692;8.186;2022-12-29T01:53:42;98213.03;;;11.80;60.41
59531;BME280;45349;48.692;8.186;2022-12-29T01:56:12;98201.13;;;11.77;60.88
59531;BME280;45349;48.692;8.186;2022-12-29T01:58:45;98212.38;;;11.78;60.55
59531;BME280;45349;48.692;8.186;2022-12-29T02:01:15;98203.75;;;11.77;60.45
59531;BME280;45349;48.692;8.186;2022-12-29T02:03:44;98205.00;;;11.90;59.73
59531;BME280;45349;48.692;8.186;2022-12-29T02:06:14;98203.22;;;11.82;59.76
59531;BME280;45349;48.692;8.186;2022-12-29T02:08:43;98205.84;;;11.82;60.01
59531;BME280;45349;48.692;8.186;2022-12-29T02:11:12;98193.63;;;11.74;60.62
59531;BME280;45349;48.692;8.186;2022-12-29T02:13:39;98188.41;;;11.74;60.30
59531;BME280;45349;48.692;8.186;2022-12-29T02:16:18;98204.56;;;11.70;60.86
59531;BME280;45349;48.692;8.186;2022-12-29T02:18:53;98188.53;;;11.73;61.42
59531;BME280;45349;48.692;8.186;2022-12-29T02:27:46;98187.78;;;11.64;62.19
59531;BME280;45349;48.692;8.186;2022-12-29T02:30:30;98197.44;;;11.63;62.38
59531;BME280;45349;48.692;8.186;2022-12-29T02:33:09;98184.19;;;11.65;61.91
59531;BME280;45349;48.692;8.186;2022-12-29T02:35:46;98180.56;;;11.66;62.58
59531;BME280;45349;48.692;8.186;2022-12-29T02:38:20;98195.63;;;11.64;62.18
59531;BME280;45349;48.692;8.186;2022-12-29T02:40:54;98203.25;;;11.74;61.72
59531;BME280;45349;48.692;8.186;2022-12-29T02:43:26;98188.53;;;11.73;62.02
59531;BME280;45349;48.692;8.186;2022-12-29T02:46:04;98208.66;;;11.72;61.78
59531;BME280;45349;48.692;8.186;2022-12-29T02:48:38;98190.50;;;11.71;62.87
59531;BME280;45349;48.692;8.186;2022-12-29T02:51:11;98166.19;;;11.70;62.58
59531;BME280;45349;48.692;8.186;2022-12-29T02:53:43;98154.88;;;11.78;61.80
59531;BME280;45349;48.692;8.186;2022-12-29T02:56:27;98165.19;;;11.71;61.91
59531;BME280;45349;48.692;8.186;2022-12-29T02:58:54;98167.69;;;11.64;63.13
59531;BME280;45349;48.692;8.186;2022-12-29T03:01:29;98157.56;;;11.61;62.37
59531;BME280;45349;48.692;8.186;2022-12-29T03:04:19;98148.88;;;11.69;62.41
59531;BME280;45349;48.692;8.186;2022-12-29T03:06:52;98153.63;;;11.65;62.35
59531;BME280;45349;48.692;8.186;2022-12-29T03:09:27;98151.03;;;11.65;62.12
59531;BME280;45349;48.692;8.186;2022-12-29T03:11:59;98137.44;;;11.70;62.16
59531;BME280;45349;48.692;8.186;2022-12-29T03:14:47;98163.44;;;11.63;62.77
59531;BME280;45349;48.692;8.186;2022-12-29T03:17:45;98156.75;;;11.61;62.51
59531;BME280;45349;48.692;8.186;2022-12-29T03:20:17;98146.78;;;11.64;62.58
59531;BME280;45349;48.692;8.186;2022-12-29T03:22:48;98166.72;;;11.57;62.64
59531;BME280;45349;48.692;8.186;2022-12-29T03:25:24;98125.06;;;11.56;62.26
59531;BME280;45349;48.692;8.186;2022-12-29T03:27:55;98137.50;;;11.45;63.29
59531;BME280;45349;48.692;8.186;2022-12-29T03:30:25;98102.25;;;11.41;63.15
59531;BME280;45349;48.692;8.186;2022-12-29T03:32:55;98125.97;;;11.31;64.46
59531;BME280;45349;48.692;8.186;2022-12-29T03:35:30;98115.34;;;11.25;64.27
59531;BME280;45349;48.692;8.186;2022-12-29T03:38:02;98127.72;;;11.39;63.08
59531;BME280;45349;48.692;8.186;2022-12-29T03:40:32;98123.00;;;11.43;62.86
59531;BME280;45349;48.692;8.186;2022-12-29T03:43:00;98145.19;;;11.47;63.37
59531;BME280;45349;48.692;8.186;2022-12-29T03:45:29;98126.56;;;11.50;63.04
59531;BME280;45349;48.692;8.186;2022-12-29T03:47:58;98147.44;;;11.58;62.32
59531;BME280;45349;48.692;8.186;2022-12-29T03:50:25;98127.66;;;11.64;61.81
59531;BME280;45349;48.692;8.186;2022-12-29T03:52:52;98128.63;;;11.63;62.22
59531;BME280;45349;48.692;8.186;2022-12-29T03:55:18;98157.56;;;11.61;62.25
59531;BME280;45349;48.692;8.186;2022-12-29T03:57:45;98136.94;;;11.66;62.34
59531;BME280;45349;48.692;8.186;2022-12-29T04:00:17;98130.91;;;11.66;62.87
59531;BME280;45349;48.692;8.186;2022-12-29T04:02:48;98143.97;;;11.66;63.03
59531;BME280;45349;48.692;8.186;2022-12-29T04:05:21;98138.44;;;11.61;62.96
59531;BME280;45349;48.692;8.186;2022-12-29T04:07:50;98148.44;;;11.57;64.01
59531;BME280;45349;48.692;8.186;2022-12-29T04:10:16;98123.09;;;11.58;63.89
59531;BME280;45349;48.692;8.186;2022-12-29T04:12:44;98132.75;;;11.57;64.36
59531;BME280;45349;48.692;8.186;2022-12-29T04:15:13;98131.78;;;11.50;64.67
59531;BME280;45349;48.692;8.186;2022-12-29T04:17:39;98143.25;;;11.41;65.78
59531;BME280;45349;48.692;8.186;2022-12-29T04:20:07;98123.03;;;11.34;66.59
59531;BME280;45349;48.692;8.186;2022-12-29T04:22:59;98130.38;;;11.31;66.32
59531;BME280;45349;48.692;8.186;2022-12-29T04:25:26;98096.28;;;11.24;66.60
59531;BME280;45349;48.692;8.186;2022-12-29T04:27:53;98117.34;;;11.14;67.85
59531;BME280;45349;48.692;8.186;2022-12-29T04:33:18;98128.16;;;11.11;67.71
59531;BME280;45349;48.692;8.186;2022-12-29T04:35:46;98138.94;;;11.08;67.26
59531;BME280;45349;48.692;8.186;2022-12-29T04:38:15;98117.88;;;11.01;68.31
59531;BME280;45349;48.692;8.186;2022-12-29T04:40:42;98105.31;;;10.97;68.51
59531;BME280;45349;48.692;8.186;2022-12-29T04:43:10;98115.78;;;10.97;68.77
59531;BME280;45349;48.692;8.186;2022-12-29T04:45:55;98116.09;;;10.93;68.99
59531;BME280;45349;48.692;8.186;2022-12-29T04:48:35;98119.34;;;11.12;68.54
59531;BME280;45349;48.692;8.186;2022-12-29T04:51:10;98104.94;;;11.16;68.17
59531;BME280;45349;48.692;8.186;2022-12-29T04:53:39;98115.22;;;11.18;68.40
59531;BME280;45349;48.692;8.186;2022-12-29T04:56:06;98127.09;;;11.29;68.26
59531;BME280;45349;48.692;8.186;2022-12-29T04:58:35;98116.97;;;11.34;67.57
59531;BME280;45349;48.692;8.186;2022-12-29T05:01:01;98115.50;;;11.40;67.49
59531;BME280;45349;48.692;8.186;2022-12-29T05:03:29;98105.19;;;11.38;67.75
59531;BME280;45349;48.692;8.186;2022-12-29T05:05:57;98091.97;;;11.40;67.27
59531;BME280;45349;48.692;8.186;2022-12-29T05:08:24;98113.31;;;11.51;66.59
59531;BME280;45349;48.692;8.186;2022-12-29T05:10:52;98105.66;;;11.50;66.88
59531;BME280;45349;48.692;8.186;2022-12-29T05:13:19;98120.31;;;11.59;66.24
59531;BME280;45349;48.692;8.186;2022-12-29T05:15:49;98105.28;;;11.61;66.25
59531;BME280;45349;48.692;8.186;2022-12-29T05:18:16;98117.72;;;11.59;66.72
59531;BME280;45349;48.692;8.186;2022-12-29T05:20:43;98111.84;;;11.57;66.11
59531;BME280;45349;48.692;8.186;2022-12-29T05:23:10;98107.09;;;11.52;66.41
59531;BME280;45349;48.692;8.186;2022-12-29T05:25:37;98099.47;;;11.43;67.56
59531;BME280;45349;48.692;8.186;2022-12-29T05:28:17;98094.41;;;11.41;66.88
59531;BME280;45349;48.692;8.186;2022-12-29T05:30:48;98093.56;;;11.49;66.26
59531;BME280;45349;48.692;8.186;2022-12-29T05:33:17;98088.50;;;11.47;66.71
59531;BME280;45349;48.692;8.186;2022-12-29T05:35:43;98095.72;;;11.37;66.80
59531;BME280;45349;48.692;8.186;2022-12-29T05:38:11;98078.06;;;11.39;66.44
59531;BME280;45349;48.692;8.186;2022-12-29T05:40:38;98099.34;;;11.28;67.45
59531;BME280;45349;48.692;8.186;2022-12-29T05:43:14;98076.03;;;11.26;66.36
59531;BME280;45349;48.692;8.186;2022-12-29T05:46:20;98102.94;;;11.27;67.13
59531;BME280;45349;48.692;8.186;2022-12-29T05:49:16;98088.09;;;11.27;67.20
59531;BME280;45349;48.692;8.186;2022-12-29T05:52:12;98085.28;;;11.37;66.22
59531;BME280;45349;48.692;8.186;2022-12-29T05:54:39;98077.78;;;11.34;66.49
59531;BME280;45349;48.692;8.186;2022-12-29T05:57:11;98094.28;;;11.34;65.78
59531;BME280;45349;48.692;8.186;2022-12-29T05:59:38;98075.50;;;11.31;65.94
59531;BME280;45349;48.692;8.186;2022-12-29T06:02:06;98092.47;;;11.35;66.53
59531;BME280;45349;48.692;8.186;2022-12-29T06:04:33;98100.91;;;11.45;65.42
59531;BME280;45349;48.692;8.186;2022-12-29T06:07:00;98085.59;;;11.42;65.68
59531;BME280;45349;48.692;8.186;2022-12-29T06:09:35;98070.41;;;11.46;64.97
59531;BME280;45349;48.692;8.186;2022-12-29T06:12:03;98099.44;;;11.51;64.84
59531;BME280;45349;48.692;8.186;2022-12-29T06:14:31;98077.38;;;11.54;64.48
59531;BME280;45349;48.692;8.186;2022-12-29T06:16:59;98084.06;;;11.56;64.30
59531;BME280;45349;48.692;8.186;2022-12-29T06:19:29;98078.50;;;11.59;63.75
59531;BME280;45349;48.692;8.186;2022-12-29T06:21:55;98080.47;;;11.57;65.40
59531;BME280;45349;48.692;8.186;2022-12-29T06:24:22;98093.97;;;11.69;64.07
59531;BME280;45349;48.692;8.186;2022-12-29T06:26:49;98085.28;;;11.69;63.92
59531;BME280;45349;48.692;8.186;2022-12-29T06:29:16;98073.84;;;11.70;63.35
59531;BME280;45349;48.692;8.186;2022-12-29T06:31:43;98075.31;;;11.72;62.94
59531;BME280;45349;48.692;8.186;2022-12-29T06:34:10;98070.09;;;11.72;62.41
59531;BME280;45349;48.692;8.186;2022-12-29T06:36:38;98059.78;;;11.71;62.59
59531;BME280;45349;48.692;8.186;2022-12-29T06:39:05;98078.97;;;11.63;63.32
59531;BME280;45349;48.692;8.186;2022-12-29T06:41:33;98044.69;;;11.58;62.35
59531;BME280;45349;48.692;8.186;2022-12-29T06:44:26;98064.59;;;11.59;62.10
59531;BME280;45349;48.692;8.186;2022-12-29T06:46:56;98052.69;;;11.56;62.18
59531;BME280;45349;48.692;8.186;2022-12-29T06:49:22;98055.16;;;11.49;62.75
59531;BME280;45349;48.692;8.186;2022-12-29T06:51:50;98063.19;;;11.48;62.86
59531;BME280;45349;48.692;8.186;2022-12-29T06:54:17;98059.41;;;11.50;62.20
59531;BME280;45349;48.692;8.186;2022-12-29T06:56:44;98068.41;;;11.48;62.49
59531;BME280;45349;48.692;8.186;2022-12-29T06:59:10;98057.13;;;11.47;62.41
59531;BME280;45349;48.692;8.186;2022-12-29T07:01:37;98053.38;;;11.50;61.98
59531;BME280;45349;48.692;8.186;2022-12-29T07:04:03;98052.91;;;11.46;62.67
59531;BME280;45349;48.692;8.186;2022-12-29T07:06:30;98070.84;;;11.49;62.67
59531;BME280;45349;48.692;8.186;2022-12-29T07:08:58;98070.41;;;11.46;61.76
59531;BME280;45349;48.692;8.186;2022-12-29T07:11:25;98066.91;;;11.54;61.46
59531;BME280;45349;48.692;8.186;2022-12-29T07:13:51;98064.94;;;11.56;61.53
59531;BME280;45349;48.692;8.186;2022-12-29T07:16:18;98073.44;;;11.58;61.58
59531;BME280;45349;48.692;8.186;2022-12-29T07:18:45;98069.25;;;11.72;60.67
59531;BME280;45349;48.692;8.186;2022-12-29T07:21:12;98077.28;;;11.70;61.91
59531;BME280;45349;48.692;8.186;2022-12-29T07:23:38;98064.75;;;11.65;60.64
59531;BME280;45349;48.692;8.186;2022-12-29T07:26:08;98078.22;;;11.77;60.48
59531;BME280;45349;48.692;8.186;2022-12-29T07:28:36;98075.28;;;11.80;60.19
59531;BME280;45349;48.692;8.186;2022-12-29T07:31:03;98060.69;;;11.86;60.26
59531;BME280;45349;48.692;8.186;2022-12-29T07:33:31;98086.69;;;11.88;59.60
59531;BME280;45349;48.692;8.186;2022-12-29T07:35:59;98099.22;;;11.92;59.36
59531;BME280;45349;48.692;8.186;2022-12-29T07:38:25;98090.88;;;11.97;59.93
59531;BME280;45349;48.692;8.186;2022-12-29T07:40:56;98099.22;;;11.92;59.50
59531;BME280;45349;48.692;8.186;2022-12-29T07:43:24;98114.75;;;12.02;59.05
59531;BME280;45349;48.692;8.186;2022-12-29T07:46:11;98105.22;;;12.09;58.75
59531;BME280;45349;48.692;8.186;2022-12-29T07:48:37;98115.16;;;12.14;58.83
59531;BME280;45349;48.692;8.186;2022-12-29T07:51:04;98110.59;;;12.08;59.27
59531;BME280;45349;48.692;8.186;2022-12-29T07:53:32;98088.09;;;12.22;57.68
59531;BME280;45349;48.692;8.186;2022-12-29T07:55:58;98098.41;;;12.23;58.37
59531;BME280;45349;48.692;8.186;2022-12-29T07:58:26;98128.47;;;12.28;57.49
59531;BME280;45349;48.692;8.186;2022-12-29T08:00:53;98123.81;;;12.38;56.80
59531;BME280;45349;48.692;8.186;2022-12-29T08:03:20;98107.78;;;12.41;57.62
59531;BME280;45349;48.692;8.186;2022-12-29T08:05:47;98119.53;;;12.45;57.36
59531;BME280;45349;48.692;8.186;2022-12-29T08:08:13;98138.13;;;12.50;56.90
59531;BME280;45349;48.692;8.186;2022-12-29T08:10:40;98117.13;;;12.59;56.81
59531;BME280;45349;48.692;8.186;2022-12-29T08:13:06;98146.63;;;12.52;57.23
59531;BME280;45349;48.692;8.186;2022-12-29T08:15:34;98151.25;;;12.65;56.18
59531;BME280;45349;48.692;8.186;2022-12-29T08:18:01;98159.75;;;12.67;56.49
59531;BME280;45349;48.692;8.186;2022-12-29T08:20:27;98159.41;;;12.70;56.73
59531;BME280;45349;48.692;8.186;2022-12-29T08:22:54;98163.84;;;12.70;57.07
59531;BME280;45349;48.692;8.186;2022-12-29T08:25:20;98160.06;;;12.73;56.32
59531;BME280;45349;48.692;8.186;2022-12-29T08:27:47;98160.69;;;12.75;56.62
59531;BME280;45349;48.692;8.186;2022-12-29T08:30:14;98187.69;;;12.75;57.17
59531;BME280;45349;48.692;8.186;2022-12-29T08:32:43;98178.97;;;12.83;56.69
59531;BME280;45349;48.692;8.186;2022-12-29T08:35:09;98175.56;;;12.74;57.18
59531;BME280;45349;48.692;8.186;2022-12-29T08:37:36;98174.41;;;12.77;57.59
59531;BME280;45349;48.692;8.186;2022-12-29T08:40:03;98169.09;;;12.70;57.91
59531;BME280;45349;48.692;8.186;2022-12-29T08:42:30;98184.16;;;12.68;58.19
59531;BME280;45349;48.692;8.186;2022-12-29T08:44:57;98192.38;;;12.65;58.01
59531;BME280;45349;48.692;8.186;2022-12-29T08:47:23;98208.72;;;12.67;58.53
59531;BME280;45349;48.692;8.186;2022-12-29T08:49:52;98192.72;;;12.62;58.34
59531;BME280;45349;48.692;8.186;2022-12-29T08:52:18;98197.94;;;12.62;58.86
59531;BME280;45349;48.692;8.186;2022-12-29T08:54:45;98217.25;;;12.61;58.45
59531;BME280;45349;48.692;8.186;2022-12-29T08:57:12;98201.38;;;12.62;58.44
59531;BME280;45349;48.692;8.186;2022-12-29T08:59:49;98207.13;;;12.58;58.82
59531;BME280;45349;48.692;8.186;2022-12-29T09:02:16;98217.47;;;12.51;59.36
59531;BME280;45349;48.692;8.186;2022-12-29T09:04:43;98199.78;;;12.53;58.75
59531;BME280;45349;48.692;8.186;2022-12-29T09:07:10;98199.50;;;12.48;59.86
59531;BME280;45349;48.692;8.186;2022-12-29T09:09:37;98206.06;;;12.44;59.92
59531;BME280;45349;48.692;8.186;2022-12-29T09:12:04;98208.03;;;12.42;60.40
59531;BME280;45349;48.692;8.186;2022-12-29T09:14:31;98229.81;;;12.42;60.45
59531;BME280;45349;48.692;8.186;2022-12-29T09:16:57;98214.25;;;12.40;60.71
59531;BME280;45349;48.692;8.186;2022-12-29T09:19:42;98200.66;;;12.45;61.74
59531;BME280;45349;48.692;8.186;2022-12-29T09:22:08;98210.66;;;12.42;61.54
59531;BME280;45349;48.692;8.186;2022-12-29T09:24:36;98208.53;;;12.45;62.09
59531;BME280;45349;48.692;8.186;2022-12-29T09:27:03;98222.94;;;12.41;62.24
59531;BME280;45349;48.692;8.186;2022-12-29T09:29:29;98220.28;;;12.49;62.27
59531;BME280;45349;48.692;8.186;2022-12-29T09:31:56;98221.91;;;12.50;62.01
59531;BME280;45349;48.692;8.186;2022-12-29T09:34:22;98234.56;;;12.70;62.25
59531;BME280;45349;48.692;8.186;2022-12-29T09:36:49;98208.94;;;12.57;62.21
59531;BME280;45349;48.692;8.186;2022-12-29T09:39:15;98214.22;;;12.49;62.51
59531;BME280;45349;48.692;8.186;2022-12-29T09:41:48;98217.91;;;12.63;63.06
59531;BME280;45349;48.692;8.186;2022-12-29T09:44:21;98228.84;;;12.66;62.44
59531;BME280;45349;48.692;8.186;2022-12-29T09:46:52;98244.19;;;12.69;62.70
59531;BME280;45349;48.692;8.186;2022-12-29T09:49:25;98218.19;;;12.68;62.30
59531;BME280;45349;48.692;8.186;2022-12-29T09:51:56;98248.50;;;12.62;63.05
59531;BME280;45349;48.692;8.186;2022-12-29T09:54:39;98228.13;;;12.73;63.15
59531;BME280;45349;48.692;8.186;2022-12-29T09:57:15;98208.53;;;12.68;66.95
59531;BME280;45349;48.692;8.186;2022-12-29T09:59:45;98220.53;;;12.63;66.01
59531;BME280;45349;48.692;8.186;2022-12-29T10:02:29;98247.91;;;12.52;67.35
59531;BME280;45349;48.692;8.186;2022-12-29T10:04:57;98232.53;;;12.49;68.30
59531;BME280;45349;48.692;8.186;2022-12-29T10:07:30;98234.44;;;12.32;70.34
59531;BME280;45349;48.692;8.186;2022-12-29T10:10:06;98243.84;;;12.18;70.04
59531;BME280;45349;48.692;8.186;2022-12-29T10:12:53;98231.28;;;12.36;70.51
59531;BME280;45349;48.692;8.186;2022-12-29T10:15:36;98241.41;;;12.39;69.40
59531;BME280;45349;48.692;8.186;2022-12-29T10:18:18;98222.47;;;12.37;70.19
59531;BME280;45349;48.692;8.186;2022-12-29T10:20:51;98230.06;;;12.55;69.39
59531;BME280;45349;48.692;8.186;2022-12-29T10:23:32;98232.19;;;12.75;68.78
59531;BME280;45349;48.692;8.186;2022-12-29T10:26:01;98231.44;;;12.66;66.65
59531;BME280;45349;48.692;8.186;2022-12-29T10:28:36;98215.22;;;12.71;67.86
59531;BME280;45349;48.692;8.186;2022-12-29T10:31:09;98214.59;;;12.69;68.49
59531;BME280;45349;48.692;8.186;2022-12-29T10:33:39;98211.69;;;12.64;67.33
59531;BME280;45349;48.692;8.186;2022-12-29T10:36:13;98217.25;;;12.61;67.03
59531;BME280;45349;48.692;8.186;2022-12-29T10:38:45;98211.34;;;12.67;66.21
59531;BME280;45349;48.692;8.186;2022-12-29T10:41:19;98223.34;;;12.76;66.22
59531;BME280;45349;48.692;8.186;2022-12-29T10:43:51;98228.72;;;12.60;66.63
59531;BME280;45349;48.692;8.186;2022-12-29T10:46:22;98220.00;;;12.67;65.96
59531;BME280;45349;48.692;8.186;2022-12-29T10:48:49;98225.97;;;12.76;65.87
59531;BME280;45349;48.692;8.186;2022-12-29T10:51:20;98234.91;;;12.67;66.49
59531;BME280;45349;48.692;8.186;2022-12-29T10:53:50;98217.25;;;12.61;65.78
59531;BME280;45349;48.692;8.186;2022-12-29T10:56:27;98269.19;;;12.49;66.79
59531;BME280;45349;48.692;8.186;2022-12-29T10:58:59;98242.25;;;12.40;65.89
59531;BME280;45349;48.692;8.186;2022-12-29T11:01:32;98256.13;;;12.40;67.09
59531;BME280;45349;48.692;8.186;2022-12-29T11:04:03;98253.03;;;12.14;68.84
59531;BME280;45349;48.692;8.186;2022-12-29T11:06:32;98259.72;;;12.08;70.26
59531;BME280;45349;48.692;8.186;2022-12-29T11:09:02;98245.53;;;12.02;70.65
59531;BME280;45349;48.692;8.186;2022-12-29T11:11:36;98260.41;;;12.02;71.06
59531;BME280;45349;48.692;8.186;2022-12-29T11:14:12;98258.63;;;12.02;70.74
59531;BME280;45349;48.692;8.186;2022-12-29T11:16:40;98251.91;;;11.91;72.44
59531;BME280;45349;48.692;8.186;2022-12-29T11:19:20;98264.00;;;11.84;73.17
59531;BME280;45349;48.692;8.186;2022-12-29T11:21:48;98249.00;;;11.78;74.12
59531;BME280;45349;48.692;8.186;2022-12-29T11:24:21;98249.00;;;11.78;79.76
59531;BME280;45349;48.692;8.186;2022-12-29T11:26:49;98233.81;;;11.73;81.37
59531;BME280;45349;48.692;8.186;2022-12-29T11:29:24;98249.72;;;11.55;80.86
59531;BME280;45349;48.692;8.186;2022-12-29T11:31:53;98238.41;;;11.71;80.44
59531;BME280;45349;48.692;8.186;2022-12-29T11:34:22;98239.06;;;11.65;80.00
59531;BME280;45349;48.692;8.186;2022-12-29T11:36:52;98241.88;;;11.63;81.17
59531;BME280;45349;48.692;8.186;2022-12-29T11:39:26;98249.22;;;11.51;80.81
59531;BME280;45349;48.692;8.186;2022-12-29T11:41:54;98251.50;;;11.55;81.13
59531;BME280;45349;48.692;8.186;2022-12-29T11:44:22;98247.59;;;11.59;78.39
59531;BME280;45349;48.692;8.186;2022-12-29T11:46:51;98251.69;;;11.53;80.02
59531;BME280;45349;48.692;8.186;2022-12-29T11:49:20;98237.63;;;11.54;80.34
59531;BME280;45349;48.692;8.186;2022-12-29T11:51:49;98239.28;;;11.39;82.43
59531;BME280;45349;48.692;8.186;2022-12-29T11:54:19;98241.91;;;11.39;81.83
59531;BME280;45349;48.692;8.186;2022-12-29T11:56:48;98238.13;;;11.41;82.24
59531;BME280;45349;48.692;8.186;2022-12-29T11:59:39;98230.63;;;11.46;79.34
59531;BME280;45349;48.692;8.186;2022-12-29T12:02:35;98209.34;;;11.58;80.59
59531;BME280;45349;48.692;8.186;2022-12-29T12:05:10;98210.84;;;11.60;80.71
59531;BME280;45349;48.692;8.186;2022-12-29T12:07:40;98208.25;;;11.52;79.76
59531;BME280;45349;48.692;8.186;2022-12-29T12:10:15;98205.41;;;11.70;78.36
59531;BME280;45349;48.692;8.186;2022-12-29T12:12:48;98200.25;;;11.93;77.49
59531;BME280;45349;48.692;8.186;2022-12-29T12:15:20;98202.69;;;11.95;77.85
59531;BME280;45349;48.692;8.186;2022-12-29T12:17:59;98200.25;;;12.02;77.83
59531;BME280;45349;48.692;8.186;2022-12-29T12:20:38;98198.22;;;12.12;76.93
59531;BME280;45349;48.692;8.186;2022-12-29T12:23:19;98204.94;;;12.15;76.32
59531;BME280;45349;48.692;8.186;2022-12-29T12:25:56;98181.50;;;12.21;76.41
59531;BME280;45349;48.692;8.186;2022-12-29T12:28:28;98196.59;;;12.11;74.95
59531;BME280;45349;48.692;8.186;2022-12-29T12:31:01;98185.06;;;12.29;73.70
59531;BME280;45349;48.692;8.186;2022-12-29T12:33:33;98195.63;;;12.35;73.27
59531;BME280;45349;48.692;8.186;2022-12-29T12:36:18;98183.16;;;12.46;74.79
59531;BME280;45349;48.692;8.186;2022-12-29T12:38:54;98178.25;;;12.43;73.81
59531;BME280;45349;48.692;8.186;2022-12-29T12:41:29;98174.59;;;12.29;73.93
59531;BME280;45349;48.692;8.186;2022-12-29T12:44:05;98175.28;;;12.22;72.10
59531;BME280;45349;48.692;8.186;2022-12-29T12:46:46;98181.09;;;12.09;73.37
59531;BME280;45349;48.692;8.186;2022-12-29T12:49:57;98189.97;;;11.92;75.66
59531;BME280;45349;48.692;8.186;2022-12-29T12:52:33;98185.56;;;11.84;76.21
59531;BME280;45349;48.692;8.186;2022-12-29T12:55:25;98172.38;;;11.77;79.39
59531;BME280;45349;48.692;8.186;2022-12-29T12:58:01;98177.09;;;11.74;78.46
59531;BME280;45349;48.692;8.186;2022-12-29T13:00:34;98182.22;;;11.67;78.08
59531;BME280;45349;48.692;8.186;2022-12-29T13:03:13;98179.25;;;11.70;81.67
59531;BME280;45349;48.692;8.186;2022-12-29T13:05:54;98164.28;;;11.56;81.63
59531;BME280;45349;48.692;8.186;2022-12-29T13:11:25;98161.53;;;11.49;82.71
59531;BME280;45349;48.692;8.186;2022-12-29T13:14:13;98161.53;;;11.49;83.24
59531;BME280;45349;48.692;8.186;2022-12-29T13:16:50;98149.44;;;11.48;82.77
59531;BME280;45349;48.692;8.186;2022-12-29T13:19:25;98152.22;;;11.46;82.70
59531;BME280;45349;48.692;8.186;2022-12-29T13:22:02;98139.31;;;11.45;81.99
59531;BME280;45349;48.692;8.186;2022-12-29T13:24:38;98140.78;;;11.39;82.03
59531;BME280;45349;48.692;8.186;2022-12-29T13:27:13;98138.69;;;11.43;82.22
59531;BME280;45349;48.692;8.186;2022-12-29T13:29:47;98144.22;;;11.48;80.86
59531;BME280;45349;48.692;8.186;2022-12-29T13:32:23;98142.56;;;11.55;80.82
59531;BME280;45349;48.692;8.186;2022-12-29T13:35:02;98141.53;;;11.64;80.52
59531;BME280;45349;48.692;8.186;2022-12-29T13:37:34;98142.75;;;11.85;76.44